createdAt,value
2018-04-17T00:02:08.111Z,5.73
2018-04-17T00:04:36.978Z,6.83
2018-04-17T00:07:05.856Z,7.10
2018-04-17T00:09:34.784Z,7.07
2018-04-17T00:12:04.422Z,5.80
2018-04-17T00:14:33.300Z,6.30
2018-04-17T00:17:02.972Z,7.03
2018-04-17T00:19:31.841Z,7.20
2018-04-17T00:22:00.739Z,7.90
2018-04-17T00:24:29.688Z,7.67
2018-04-17T00:26:58.573Z,6.17
2018-04-17T00:29:27.442Z,6.57
2018-04-17T00:31:56.334Z,6.70
2018-04-17T00:34:25.245Z,6.53
2018-04-17T00:36:54.131Z,6.70
2018-04-17T00:39:23.002Z,6.00
2018-04-17T00:41:51.893Z,5.67
2018-04-17T00:44:20.787Z,6.03
2018-04-17T00:46:49.668Z,6.13
2018-04-17T00:49:18.540Z,5.43
2018-04-17T00:51:47.431Z,6.63
2018-04-17T00:54:16.345Z,6.23
2018-04-17T00:56:45.247Z,6.37
2018-04-17T00:59:14.127Z,7.00
2018-04-17T01:01:43.045Z,6.00
2018-04-17T01:04:11.923Z,6.43
2018-04-17T01:06:41.572Z,6.87
2018-04-17T01:09:11.240Z,7.73
2018-04-17T01:11:40.119Z,7.13
2018-04-17T01:14:09.000Z,6.37
2018-04-17T01:16:37.900Z,6.47
2018-04-17T01:19:06.902Z,7.23
2018-04-17T01:21:35.780Z,6.63
2018-04-17T01:24:04.685Z,5.60
2018-04-17T01:26:33.563Z,5.50
2018-04-17T01:29:02.436Z,5.57
2018-04-17T01:31:31.352Z,6.30
2018-04-17T01:34:00.237Z,5.37
2018-04-17T01:36:29.110Z,5.87
2018-04-17T01:38:58.048Z,5.30
2018-04-17T01:41:26.920Z,6.10
2018-04-17T01:43:55.803Z,6.10
2018-04-17T01:46:24.695Z,6.03
2018-04-17T01:48:53.567Z,5.70
2018-04-17T01:51:22.476Z,5.60
2018-04-17T01:53:51.353Z,5.07
2018-04-17T01:56:20.239Z,5.20
2018-04-17T01:58:49.922Z,5.60
2018-04-17T02:01:18.797Z,5.60
2018-04-17T02:03:47.671Z,5.43
2018-04-17T02:06:16.571Z,4.97
2018-04-17T02:08:45.508Z,4.77
2018-04-17T02:11:14.383Z,5.43
2018-04-17T02:13:43.273Z,6.00
2018-04-17T02:16:12.196Z,5.27
2018-04-17T02:18:41.064Z,5.10
2018-04-17T02:21:09.945Z,6.10
2018-04-17T02:23:38.836Z,5.33
2018-04-17T02:26:07.712Z,5.47
2018-04-17T02:28:36.598Z,6.63
2018-04-17T02:31:05.506Z,8.23
2018-04-17T02:33:35.168Z,8.40
2018-04-17T02:36:04.114Z,9.43
2018-04-17T02:38:32.991Z,8.13
2018-04-17T02:41:01.929Z,7.20
2018-04-17T02:43:31.602Z,6.80
2018-04-17T02:46:00.482Z,6.83
2018-04-17T02:48:29.355Z,7.40
2018-04-17T02:50:58.269Z,8.43
2018-04-17T02:53:27.192Z,8.30
2018-04-17T02:55:56.092Z,7.77
2018-04-17T02:58:25.735Z,9.03
2018-04-17T03:00:54.627Z,8.07
2018-04-17T03:03:24.304Z,10.17
2018-04-17T03:05:53.199Z,8.60
2018-04-17T03:08:23.914Z,9.53
2018-04-17T03:10:52.884Z,7.73
2018-04-17T03:13:21.763Z,8.50
2018-04-17T03:15:50.672Z,8.73
2018-04-17T03:18:20.612Z,7.67
2018-04-17T03:20:49.532Z,7.17
2018-04-17T03:23:19.220Z,9.00
2018-04-17T03:25:48.099Z,9.10
2018-04-17T03:28:17.227Z,9.40
2018-04-17T03:30:46.129Z,9.30
2018-04-17T03:33:15.035Z,9.23
2018-04-17T03:35:43.958Z,8.77
2018-04-17T03:38:12.837Z,9.50
2018-04-17T03:40:41.755Z,8.23
2018-04-17T03:43:11.415Z,8.60
2018-04-17T03:45:40.286Z,8.77
2018-04-17T03:48:09.192Z,9.47
2018-04-17T03:50:38.083Z,8.50
2018-04-17T03:53:07.002Z,8.80
2018-04-17T03:55:35.868Z,9.50
2018-04-17T03:58:04.752Z,9.80
2018-04-17T04:00:33.639Z,7.67
2018-04-17T04:03:02.507Z,8.27
2018-04-17T04:05:31.427Z,8.77
2018-04-17T04:08:00.282Z,7.50
2018-04-17T04:10:29.151Z,8.83
2018-04-17T04:12:58.063Z,8.80
2018-04-17T04:15:27.704Z,7.70
2018-04-17T04:18:14.496Z,8.27
2018-04-17T04:21:01.212Z,8.00
2018-04-17T04:23:47.868Z,7.60
2018-04-17T04:26:38.580Z,8.47
2018-04-17T04:29:07.452Z,8.20
2018-04-17T04:31:36.314Z,8.03
2018-04-17T04:34:05.211Z,7.97
2018-04-17T04:36:34.117Z,8.67
2018-04-17T04:39:03.021Z,8.37
2018-04-17T04:41:31.901Z,8.37
2018-04-17T04:44:00.818Z,9.00
2018-04-17T04:46:29.705Z,7.87
2018-04-17T04:48:59.371Z,9.13
2018-04-17T04:51:28.280Z,8.37
2018-04-17T04:53:57.914Z,8.00
2018-04-17T04:56:26.799Z,7.40
2018-04-17T04:58:55.707Z,7.60
2018-04-17T05:01:24.603Z,8.00
2018-04-17T05:03:54.251Z,6.93
2018-04-17T05:06:23.119Z,7.43
2018-04-17T05:08:52.019Z,7.07
2018-04-17T05:11:20.891Z,8.13
2018-04-17T05:13:49.807Z,7.07
2018-04-17T05:16:18.739Z,7.67
2018-04-17T05:18:47.607Z,7.90
2018-04-17T05:21:16.472Z,7.50
2018-04-17T05:23:46.175Z,6.53
2018-04-17T05:26:15.051Z,7.47
2018-04-17T05:28:43.931Z,7.73
2018-04-17T05:31:12.822Z,7.00
2018-04-17T05:33:42.500Z,8.20
2018-04-17T05:36:11.363Z,7.40
2018-04-17T05:38:40.244Z,8.00
2018-04-17T05:41:09.135Z,7.60
2018-04-17T05:43:38.006Z,6.77
2018-04-17T05:46:06.895Z,6.93
2018-04-17T05:48:36.567Z,6.77
2018-04-17T05:51:05.436Z,7.20
2018-04-17T05:53:34.355Z,7.90
2018-04-17T05:56:03.234Z,8.20
2018-04-17T05:58:32.101Z,7.23
2018-04-17T06:01:01.028Z,7.47
2018-04-17T06:03:29.895Z,7.63
2018-04-17T06:05:58.819Z,6.90
2018-04-17T06:08:28.480Z,6.67
2018-04-17T06:10:57.385Z,6.97
2018-04-17T06:13:26.993Z,6.70
2018-04-17T06:15:55.859Z,6.00
2018-04-17T06:18:24.860Z,6.20
2018-04-17T06:20:53.767Z,7.07
2018-04-17T06:23:22.704Z,6.23
2018-04-17T06:25:51.532Z,5.60
2018-04-17T06:28:20.791Z,4.97
2018-04-17T06:30:49.731Z,5.20
2018-04-17T06:33:18.620Z,4.67
2018-04-17T06:35:47.507Z,5.60
2018-04-17T06:38:16.381Z,6.10
2018-04-17T06:40:45.287Z,6.80
2018-04-17T06:43:14.156Z,6.17
2018-04-17T06:45:43.023Z,6.07
2018-04-17T06:48:11.911Z,4.80
2018-04-17T06:50:40.795Z,4.30
2018-04-17T06:53:09.713Z,4.50
2018-04-17T06:55:38.589Z,4.40
2018-04-17T06:58:07.485Z,4.27
2018-04-17T07:00:36.387Z,4.03
2018-04-17T07:03:05.256Z,3.50
2018-04-17T07:05:34.224Z,3.20
2018-04-17T07:08:03.123Z,3.47
2018-04-17T07:10:32.807Z,3.20
2018-04-17T07:13:01.671Z,3.80
2018-04-17T07:15:30.580Z,3.60
2018-04-17T07:18:00.215Z,3.70
2018-04-17T07:20:29.092Z,3.63
2018-04-17T07:22:58.001Z,3.60
2018-04-17T07:25:26.876Z,3.57
2018-04-17T07:27:55.786Z,3.70
2018-04-17T07:30:24.656Z,3.57
2018-04-17T07:32:53.550Z,3.67
2018-04-17T07:35:22.439Z,3.57
2018-04-17T07:37:51.307Z,20.17
2018-04-17T07:40:20.233Z,12.00
2018-04-17T07:42:49.907Z,4.20
2018-04-17T07:45:18.770Z,3.80
2018-04-17T07:48:01.529Z,4.50
2018-04-17T07:50:30.405Z,4.53
2018-04-17T07:52:59.280Z,4.50
2018-04-17T07:55:28.204Z,3.83
2018-04-17T07:57:57.080Z,3.57
2018-04-17T08:00:25.947Z,3.67
2018-04-17T08:02:54.854Z,3.40
2018-04-17T08:05:24.487Z,3.07
2018-04-17T08:07:53.364Z,3.10
2018-04-17T08:10:22.256Z,3.20
2018-04-17T08:12:51.123Z,3.70
2018-04-17T08:15:20.036Z,4.17
2018-04-17T08:17:49.711Z,3.00
2018-04-17T08:20:18.575Z,3.20
2018-04-17T08:22:48.228Z,10.77
2018-04-17T08:25:17.144Z,10.33
2018-04-17T08:27:46.025Z,3.47
2018-04-17T08:30:14.900Z,3.10
2018-04-17T08:32:43.807Z,5.70
2018-04-17T08:35:13.436Z,6.37
2018-04-17T08:37:42.336Z,4.50
2018-04-17T08:40:11.207Z,3.43
2018-04-17T08:42:40.114Z,3.40
2018-04-17T08:45:09.755Z,3.43
2018-04-17T08:47:38.632Z,3.27
2018-04-17T08:50:07.539Z,3.37
2018-04-17T08:52:36.407Z,3.70
2018-04-17T08:55:05.284Z,3.47
2018-04-17T08:57:34.311Z,3.40
2018-04-17T09:00:03.219Z,2.80
2018-04-17T09:02:32.089Z,3.30
2018-04-17T09:05:00.985Z,3.13
2018-04-17T09:07:29.860Z,3.10
2018-04-17T09:09:58.802Z,2.60
2018-04-17T09:12:27.683Z,2.90
2018-04-17T09:14:56.554Z,3.00
2018-04-17T09:17:25.459Z,2.53
2018-04-17T09:19:54.327Z,2.50
2018-04-17T09:22:23.199Z,2.50
2018-04-17T09:24:52.087Z,2.67
2018-04-17T09:27:20.979Z,2.60
2018-04-17T09:29:50.643Z,2.43
2018-04-17T09:32:19.515Z,2.40
2018-04-17T09:34:48.392Z,2.40
2018-04-17T09:37:18.076Z,2.50
2018-04-17T09:39:46.955Z,2.47
2018-04-17T09:42:16.597Z,2.50
2018-04-17T09:44:45.514Z,2.30
2018-04-17T09:47:14.383Z,2.40
2018-04-17T09:49:43.939Z,2.60
2018-04-17T09:52:12.838Z,2.60
2018-04-17T09:54:41.723Z,2.43
2018-04-17T09:57:10.605Z,2.50
2018-04-17T09:59:40.391Z,2.07
2018-04-17T10:02:09.460Z,2.27
2018-04-17T10:04:38.354Z,2.10
2018-04-17T10:07:07.247Z,2.70
2018-04-17T10:09:36.110Z,2.50
2018-04-17T10:12:05.351Z,2.40
2018-04-17T10:14:34.222Z,2.33
2018-04-17T10:17:03.089Z,2.37
2018-04-17T10:19:33.132Z,2.50
2018-04-17T10:22:03.083Z,2.37
2018-04-17T10:24:32.711Z,2.23
2018-04-17T10:27:01.604Z,1.90
2018-04-17T10:29:30.511Z,2.20
2018-04-17T10:31:59.395Z,2.40
2018-04-17T10:34:29.027Z,2.33
2018-04-17T10:36:57.923Z,2.20
2018-04-17T10:39:26.787Z,2.40
2018-04-17T10:41:55.666Z,2.67
2018-04-17T10:44:24.579Z,2.60
2018-04-17T10:46:54.234Z,2.60
2018-04-17T10:49:23.104Z,2.60
2018-04-17T10:51:52.037Z,2.57
2018-04-17T10:54:21.667Z,2.23
2018-04-17T10:56:50.560Z,2.50
2018-04-17T10:59:19.495Z,2.50
2018-04-17T11:01:48.378Z,2.50
2018-04-17T11:04:17.280Z,2.57
2018-04-17T11:06:46.160Z,2.30
2018-04-17T11:09:15.032Z,2.53
2018-04-17T11:11:43.915Z,2.70
2018-04-17T11:14:12.831Z,2.67
2018-04-17T11:16:42.466Z,2.80
2018-04-17T11:19:11.352Z,2.57
2018-04-17T11:21:40.242Z,2.70
2018-04-17T11:24:09.136Z,2.40
2018-04-17T11:26:38.771Z,2.27
2018-04-17T11:29:07.687Z,2.50
2018-04-17T11:31:36.560Z,2.20
2018-04-17T11:34:05.471Z,2.50
2018-04-17T11:36:34.364Z,2.37
2018-04-17T11:39:12.183Z,2.20
2018-04-17T11:41:41.067Z,2.43
2018-04-17T11:44:09.941Z,2.47
2018-04-17T11:46:38.829Z,2.37
2018-04-17T11:49:07.692Z,2.10
2018-04-17T11:51:36.871Z,2.00
2018-04-17T11:54:05.735Z,2.27
2018-04-17T11:56:34.598Z,1.90
2018-04-17T11:59:03.507Z,2.07
2018-04-17T12:01:32.378Z,2.20
2018-04-17T12:04:02.296Z,2.50
2018-04-17T12:06:31.259Z,2.43
2018-04-17T12:09:00.151Z,2.60
2018-04-17T12:11:29.784Z,2.23
2018-04-17T12:13:58.668Z,2.00
2018-04-17T12:16:27.611Z,2.00
2018-04-17T12:18:56.559Z,2.37
2018-04-17T12:21:26.196Z,2.47
2018-04-17T12:23:55.101Z,1.90
2018-04-17T12:26:23.973Z,1.97
2018-04-17T12:28:52.876Z,2.17
2018-04-17T12:31:22.559Z,1.73
2018-04-17T12:33:51.435Z,1.77
2018-04-17T12:36:20.327Z,1.90
2018-04-17T12:38:49.991Z,1.83
2018-04-17T12:41:18.904Z,2.00
2018-04-17T12:43:47.796Z,1.90
2018-04-17T12:46:16.787Z,2.10
2018-04-17T12:48:45.694Z,2.00
2018-04-17T12:51:14.601Z,2.13
2018-04-17T12:53:43.566Z,2.17
2018-04-17T12:56:13.235Z,2.00
2018-04-17T12:58:42.953Z,2.23
2018-04-17T13:01:12.595Z,2.03
2018-04-17T13:03:41.496Z,2.17
2018-04-17T13:06:10.399Z,2.30
2018-04-17T13:08:40.036Z,2.20
2018-04-17T13:11:08.930Z,2.20
2018-04-17T13:13:37.855Z,2.30
2018-04-17T13:16:06.759Z,2.23
2018-04-17T13:18:35.663Z,2.00
2018-04-17T13:21:04.654Z,2.20
2018-04-17T13:23:33.551Z,2.17
2018-04-17T13:26:03.189Z,2.43
2018-04-17T13:28:32.099Z,2.40
2018-04-17T13:31:00.975Z,2.10
2018-04-17T13:33:29.883Z,2.20
2018-04-17T13:35:58.791Z,2.20
2018-04-17T13:38:27.663Z,2.10
2018-04-17T13:40:56.554Z,2.00
2018-04-17T13:43:25.442Z,2.03
2018-04-17T13:45:54.359Z,1.80
2018-04-17T13:48:24.202Z,1.93
2018-04-17T13:50:53.087Z,1.80
2018-04-17T13:53:21.989Z,2.00
2018-04-17T13:55:51.715Z,2.03
2018-04-17T13:58:21.089Z,1.73
2018-04-17T14:00:50.436Z,2.03
2018-04-17T14:03:19.308Z,1.97
2018-04-17T14:05:48.253Z,1.90
2018-04-17T14:08:17.136Z,1.90
2018-04-17T14:10:46.012Z,1.90
2018-04-17T14:13:14.904Z,2.07
2018-04-17T14:15:43.860Z,1.90
2018-04-17T14:18:12.728Z,1.80
2018-04-17T14:20:41.598Z,1.90
2018-04-17T14:23:10.489Z,1.90
2018-04-17T14:25:39.362Z,2.00
2018-04-17T14:28:08.255Z,1.90
2018-04-17T14:30:37.133Z,2.00
2018-04-17T14:33:06.024Z,2.10
2018-04-17T14:35:34.959Z,1.90
2018-04-17T14:38:03.859Z,1.90
2018-04-17T14:40:32.764Z,2.10
2018-04-17T14:43:01.689Z,1.87
2018-04-17T14:45:30.527Z,1.90
2018-04-17T14:47:59.415Z,1.70
2018-04-17T14:50:28.285Z,1.70
2018-04-17T14:52:57.148Z,1.70
2018-04-17T14:55:26.046Z,1.90
2018-04-17T14:57:54.952Z,1.60
2018-04-17T15:00:23.812Z,1.40
2018-04-17T15:02:52.703Z,1.70
2018-04-17T15:05:21.573Z,1.70
2018-04-17T15:07:50.471Z,1.53
2018-04-17T15:10:20.111Z,1.50
2018-04-17T15:12:49.014Z,1.40
2018-04-17T15:15:17.936Z,1.70
2018-04-17T15:17:46.843Z,1.47
2018-04-17T15:20:15.718Z,1.50
2018-04-17T15:22:44.595Z,1.53
2018-04-17T15:25:13.483Z,1.43
2018-04-17T15:27:42.375Z,1.50
2018-04-17T15:30:11.263Z,1.63
2018-04-17T15:32:40.925Z,1.50
2018-04-17T15:35:09.793Z,1.70
2018-04-17T15:37:38.699Z,1.63
2018-04-17T15:40:08.383Z,1.77
2018-04-17T15:42:37.251Z,1.50
2018-04-17T15:45:06.144Z,1.60
2018-04-17T15:47:35.821Z,1.77
2018-04-17T15:50:04.707Z,1.60
2018-04-17T15:52:33.575Z,1.70
2018-04-17T15:55:02.488Z,1.70
2018-04-17T15:57:31.387Z,1.70
2018-04-17T16:00:00.292Z,1.87
2018-04-17T16:02:29.203Z,1.97
2018-04-17T16:04:58.075Z,2.00
2018-04-17T16:07:26.940Z,2.80
2018-04-17T16:09:56.627Z,2.27
2018-04-17T16:12:26.263Z,1.90
2018-04-17T16:14:55.136Z,1.90
2018-04-17T16:17:24.031Z,2.20
2018-04-17T16:19:52.923Z,2.43
2018-04-17T16:22:21.863Z,2.60
2018-04-17T16:24:50.738Z,3.30
2018-04-17T16:27:19.608Z,4.10
2018-04-17T16:29:48.512Z,4.57
2018-04-17T16:32:17.404Z,5.37
2018-04-17T16:34:46.271Z,4.80
2018-04-17T16:37:15.139Z,4.00
2018-04-17T16:39:44.028Z,3.80
2018-04-17T16:42:12.936Z,3.80
2018-04-17T16:44:41.825Z,4.07
2018-04-17T16:47:10.692Z,3.60
2018-04-17T16:49:39.611Z,4.10
2018-04-17T16:52:08.479Z,4.30
2018-04-17T16:54:37.368Z,3.73
2018-04-17T16:57:06.543Z,4.60
2018-04-17T16:59:35.439Z,4.00
2018-04-17T17:02:04.327Z,4.00
2018-04-17T17:04:33.959Z,3.53
2018-04-17T17:07:02.856Z,3.63
2018-04-17T17:09:31.729Z,3.63
2018-04-17T17:12:00.626Z,3.67
2018-04-17T17:14:29.495Z,3.50
2018-04-17T17:16:58.437Z,4.00
2018-04-17T17:19:27.316Z,3.80
2018-04-17T17:21:56.235Z,4.13
2018-04-17T17:24:25.111Z,4.30
2018-04-17T17:26:53.980Z,4.33
2018-04-17T17:29:22.874Z,4.70
2018-04-17T17:31:52.532Z,6.23
2018-04-17T17:34:21.467Z,6.77
2018-04-17T17:36:50.335Z,9.27
2018-04-17T17:39:19.211Z,10.57
2018-04-17T17:41:48.136Z,7.40
2018-04-17T17:44:17.028Z,7.17
2018-04-17T17:46:46.684Z,8.80
2018-04-17T17:49:15.625Z,7.53
2018-04-17T17:51:44.563Z,6.30
2018-04-17T17:54:13.443Z,6.80
2018-04-17T17:56:43.398Z,6.23
2018-04-17T17:59:12.320Z,5.97
2018-04-17T18:01:41.212Z,8.07
2018-04-17T18:04:10.867Z,11.63
2018-04-17T18:06:39.780Z,16.63
2018-04-17T18:09:08.713Z,15.23
2018-04-17T18:11:37.613Z,9.37
2018-04-17T18:14:06.524Z,11.63
2018-04-17T18:16:35.431Z,11.40
2018-04-17T18:19:04.315Z,9.70
2018-04-17T18:21:33.194Z,7.20
2018-04-17T18:24:02.109Z,7.80
2018-04-17T18:26:31.017Z,8.00
2018-04-17T18:28:59.875Z,7.97
2018-04-17T18:31:28.797Z,8.00
2018-04-17T18:33:57.671Z,7.57
2018-04-17T18:36:26.544Z,6.83
2018-04-17T18:38:55.527Z,6.90
2018-04-17T18:41:24.405Z,8.03
2018-04-17T18:43:54.068Z,7.60
2018-04-17T18:46:22.976Z,7.17
2018-04-17T18:48:51.937Z,8.70
2018-04-17T18:51:20.843Z,8.60
2018-04-17T18:53:50.482Z,9.00
2018-04-17T18:56:19.364Z,7.50
2018-04-17T18:58:48.282Z,6.67
2018-04-17T19:01:17.920Z,6.93
2018-04-17T19:03:46.791Z,6.00
2018-04-17T19:06:15.698Z,5.80
2018-04-17T19:08:44.653Z,6.03
2018-04-17T19:11:13.540Z,6.20
2018-04-17T19:13:42.437Z,7.10
2018-04-17T19:16:11.440Z,10.57
2018-04-17T19:18:40.322Z,8.60
2018-04-17T19:21:09.239Z,7.73
2018-04-17T19:23:38.115Z,6.90
2018-04-17T19:26:06.998Z,6.60
2018-04-17T19:28:35.897Z,5.97
2018-04-17T19:31:04.789Z,7.57
2018-04-17T19:33:33.732Z,7.33
2018-04-17T19:36:02.708Z,6.93
2018-04-17T19:38:32.343Z,7.23
2018-04-17T19:41:01.286Z,7.90
2018-04-17T19:43:36.649Z,7.53
2018-04-17T19:46:05.566Z,7.90
2018-04-17T19:48:34.459Z,8.10
2018-04-17T19:51:03.374Z,8.20
2018-04-17T19:53:32.411Z,8.77
2018-04-17T19:56:01.348Z,9.17
2018-04-17T19:58:30.265Z,9.10
2018-04-17T20:00:59.153Z,7.60
2018-04-17T20:03:28.788Z,6.87
2018-04-17T20:05:57.691Z,6.37
2018-04-17T20:08:26.624Z,6.83
2018-04-17T20:10:55.715Z,6.73
2018-04-17T20:13:24.605Z,6.23
2018-04-17T20:15:53.468Z,7.33
2018-04-17T20:18:23.895Z,6.97
2018-04-17T20:20:52.931Z,7.07
2018-04-17T20:23:21.832Z,7.17
2018-04-17T20:25:51.540Z,7.77
2018-04-17T20:28:20.876Z,6.60
2018-04-17T20:30:49.906Z,6.63
2018-04-17T20:33:18.831Z,7.10
2018-04-17T20:35:48.573Z,7.63
2018-04-17T20:38:17.449Z,8.20
2018-04-17T20:40:46.372Z,10.60
2018-04-17T20:43:16.025Z,9.90
2018-04-17T20:45:44.891Z,8.57
2018-04-17T20:48:13.803Z,7.97
2018-04-17T20:50:42.696Z,9.20
2018-04-17T20:53:11.603Z,9.90
2018-04-17T20:55:41.203Z,8.67
2018-04-17T20:58:10.254Z,8.03
2018-04-17T21:00:39.249Z,6.63
2018-04-17T21:03:08.313Z,7.57
2018-04-17T21:05:37.351Z,6.33
2018-04-17T21:08:07.175Z,6.03
2018-04-17T21:10:36.384Z,6.70
2018-04-17T21:13:05.533Z,6.47
2018-04-17T21:15:34.596Z,6.50
2018-04-17T21:18:05.670Z,6.80
2018-04-17T21:20:34.692Z,7.47
2018-04-17T21:23:04.549Z,7.73
2018-04-17T21:25:33.667Z,7.33
2018-04-17T21:28:03.482Z,7.40
2018-04-17T21:30:32.561Z,6.87
2018-04-17T21:33:01.583Z,6.63
2018-04-17T21:35:30.603Z,7.53
2018-04-17T21:37:59.665Z,7.37
2018-04-17T21:40:29.486Z,7.30
2018-04-17T21:42:58.507Z,7.30
2018-04-17T21:45:27.538Z,7.60
2018-04-17T21:47:56.621Z,7.83
2018-04-17T21:50:26.170Z,7.67
2018-04-17T21:52:55.216Z,7.30
2018-04-17T21:55:24.250Z,7.40
2018-04-17T21:57:54.069Z,7.60
2018-04-17T22:00:23.126Z,7.23
2018-04-17T22:02:52.165Z,8.10
2018-04-17T22:05:21.186Z,7.27
2018-04-17T22:07:50.322Z,7.20
2018-04-17T22:10:19.376Z,7.20
2018-04-17T22:12:48.384Z,8.13
2018-04-17T22:15:17.455Z,7.53
2018-04-17T22:17:46.608Z,6.87
2018-04-17T22:20:15.687Z,7.03
2018-04-17T22:22:44.898Z,6.93
2018-04-17T22:25:14.810Z,6.63
2018-04-17T22:27:44.691Z,7.90
2018-04-17T22:30:13.705Z,7.93
2018-04-17T22:32:43.532Z,8.00
2018-04-17T22:35:12.571Z,7.87
2018-04-17T22:37:41.611Z,7.17
2018-04-17T22:40:10.651Z,7.97
2018-04-17T22:42:39.743Z,8.57
2018-04-17T22:45:08.843Z,8.27
2018-04-17T22:47:37.888Z,7.47
2018-04-17T22:50:07.726Z,7.37
2018-04-17T22:52:36.779Z,7.37
2018-04-17T22:55:05.897Z,6.80
2018-04-17T22:57:34.968Z,7.40
2018-04-17T23:00:04.009Z,7.40
2018-04-17T23:02:33.801Z,7.60
2018-04-17T23:05:02.776Z,7.30
2018-04-17T23:07:32.581Z,7.83
2018-04-17T23:10:01.633Z,7.70
2018-04-17T23:12:30.683Z,8.33
2018-04-17T23:14:59.777Z,7.93
2018-04-17T23:17:28.787Z,7.83
2018-04-17T23:19:57.775Z,8.23
2018-04-17T23:22:26.795Z,7.97
2018-04-17T23:24:55.916Z,8.17
2018-04-17T23:27:25.186Z,8.50
2018-04-17T23:29:54.201Z,7.93
2018-04-17T23:32:23.273Z,7.73
2018-04-17T23:34:52.345Z,8.93
2018-04-17T23:37:21.374Z,8.27
2018-04-17T23:39:50.379Z,8.27
2018-04-17T23:42:19.485Z,7.60
2018-04-17T23:44:48.508Z,8.07
2018-04-17T23:47:17.556Z,7.80
2018-04-17T23:49:46.564Z,7.20
2018-04-17T23:52:15.599Z,7.27
2018-04-17T23:54:45.353Z,8.00
2018-04-17T23:57:14.409Z,7.50
2018-04-17T23:59:43.406Z,7.83
